createdAt,value
2022-12-01T00:00:34.735Z,18.38
2022-12-01T00:01:37.695Z,18.4
2022-12-01T00:02:51.364Z,18.38
2022-12-01T00:04:15.209Z,18.4
2022-12-01T00:05:28.970Z,18.38
2022-12-01T00:06:51.442Z,18.38
2022-12-01T00:07:25.081Z,18.4
2022-12-01T00:08:39.308Z,18.4
2022-12-01T00:09:52.041Z,18.43
2022-12-01T00:10:55.926Z,18.44
2022-12-01T00:12:08.943Z,18.44
2022-12-01T00:13:22.287Z,18.44
2022-12-01T00:14:25.027Z,18.44
2022-12-01T00:15:38.866Z,18.43
2022-12-01T00:16:51.566Z,18.41
2022-12-01T00:18:05.282Z,18.4
2022-12-01T00:19:07.992Z,18.41
2022-12-01T00:20:21.809Z,18.4
2022-12-01T00:21:34.607Z,18.37
2022-12-01T00:22:38.948Z,18.38
2022-12-01T00:23:51.938Z,18.37
2022-12-01T00:25:05.317Z,18.37
2022-12-01T00:26:17.947Z,18.36
2022-12-01T00:27:21.786Z,18.37
2022-12-01T00:29:04.245Z,18.33
2022-12-01T00:29:37.788Z,18.37
2022-12-01T00:30:50.535Z,18.34
2022-12-01T00:32:04.386Z,18.36
2022-12-01T00:33:07.210Z,18.36
2022-12-01T00:34:20.771Z,18.37
2022-12-01T00:35:33.449Z,18.36
2022-12-01T00:36:38.290Z,18.36
2022-12-01T00:37:50.939Z,18.38
2022-12-01T00:39:04.830Z,18.36
2022-12-01T00:40:07.946Z,18.36
2022-12-01T00:41:21.300Z,18.33
2022-12-01T00:42:33.959Z,18.36
2022-12-01T00:43:37.829Z,18.34
2022-12-01T00:44:50.544Z,18.31
2022-12-01T00:46:04.435Z,18.3
2022-12-01T00:47:17.112Z,18.31
2022-12-01T00:48:21.076Z,18.3
2022-12-01T00:49:33.795Z,18.31
2022-12-01T00:50:37.877Z,18.29
2022-12-01T00:51:50.669Z,18.3
2022-12-01T00:53:04.322Z,18.27
2022-12-01T00:54:26.840Z,18.29
2022-12-01T00:55:31.311Z,18.29
2022-12-01T00:56:53.791Z,18.31
2022-12-01T00:57:37.822Z,18.31
2022-12-01T00:58:50.527Z,18.31
2022-12-01T01:00:04.295Z,18.3
2022-12-01T01:01:07.093Z,18.31
2022-12-01T01:02:20.961Z,18.31
2022-12-01T01:03:33.703Z,18.31
2022-12-01T01:04:37.295Z,18.31
2022-12-01T01:05:59.912Z,18.33
2022-12-01T01:07:03.796Z,18.31
2022-12-01T01:08:06.626Z,18.33
2022-12-01T01:09:20.347Z,18.33
2022-12-01T01:10:32.989Z,18.3
2022-12-01T01:11:36.835Z,18.29
2022-12-01T01:12:49.794Z,18.29
2022-12-01T01:14:03.838Z,18.3
2022-12-01T01:15:06.524Z,18.3
2022-12-01T01:16:20.012Z,18.26
2022-12-01T01:17:33.277Z,18.3
2022-12-01T01:18:37.042Z,18.26
2022-12-01T01:19:49.925Z,18.26
2022-12-01T01:21:04.293Z,18.26
2022-12-01T01:22:07.052Z,18.24
2022-12-01T01:23:21.300Z,18.26
2022-12-01T01:24:34.013Z,18.24
2022-12-01T01:25:37.827Z,18.2
2022-12-01T01:26:50.502Z,18.22
2022-12-01T01:28:14.317Z,18.2
2022-12-01T01:29:07.107Z,18.2
2022-12-01T01:30:21.188Z,18.2
2022-12-01T01:31:33.976Z,18.19
2022-12-01T01:32:37.858Z,18.22
2022-12-01T01:33:50.494Z,18.2
2022-12-01T01:35:04.333Z,18.17
2022-12-01T01:36:07.087Z,18.17
2022-12-01T01:37:20.807Z,18.17
2022-12-01T01:38:43.330Z,18.16
2022-12-01T01:39:47.694Z,18.16
2022-12-01T01:40:50.738Z,18.17
2022-12-01T01:42:04.348Z,18.16
2022-12-01T01:43:27.696Z,18.16
2022-12-01T01:44:21.815Z,18.19
2022-12-01T01:45:24.633Z,18.19
2022-12-01T01:46:38.315Z,18.19
2022-12-01T01:47:51.056Z,18.17
2022-12-01T01:49:14.424Z,18.17
2022-12-01T01:50:07.227Z,18.19
2022-12-01T01:51:43.344Z,18.17
2022-12-01T01:52:36.858Z,18.19
2022-12-01T01:53:40.043Z,18.2
2022-12-01T01:54:53.849Z,18.2
2022-12-01T01:55:56.535Z,18.22
2022-12-01T01:57:10.321Z,18.19
2022-12-01T01:58:22.972Z,18.19
2022-12-01T01:59:36.838Z,18.2
2022-12-01T02:00:39.673Z,18.23
2022-12-01T02:01:53.325Z,18.2
2022-12-01T02:02:56.142Z,18.22
2022-12-01T02:04:10.365Z,18.19
2022-12-01T02:05:23.056Z,18.19
2022-12-01T02:06:27.842Z,18.19
2022-12-01T02:07:40.600Z,18.14
2022-12-01T02:08:54.314Z,18.17
2022-12-01T02:09:57.857Z,18.17
2022-12-01T02:11:31.480Z,18.13
2022-12-01T02:12:24.301Z,18.14
2022-12-01T02:13:27.048Z,18.16
2022-12-01T02:14:40.813Z,18.16
2022-12-01T02:15:53.596Z,18.13
2022-12-01T02:16:57.897Z,18.16
2022-12-01T02:18:10.701Z,18.14
2022-12-01T02:19:24.315Z,18.13
2022-12-01T02:20:27.021Z,18.13
2022-12-01T02:21:40.813Z,18.1
2022-12-01T02:22:54.024Z,18.14
2022-12-01T02:23:57.857Z,18.13
2022-12-01T02:25:10.484Z,18.09
2022-12-01T02:26:24.333Z,18.1
2022-12-01T02:27:27.286Z,18.12
2022-12-01T02:28:40.903Z,18.09
2022-12-01T02:29:43.761Z,18.09
2022-12-01T02:30:57.422Z,18.1
2022-12-01T02:32:20.143Z,18.09
2022-12-01T02:33:23.858Z,18.09
2022-12-01T02:34:27.111Z,18.09
2022-12-01T02:36:02.853Z,18.09
2022-12-01T02:36:45.965Z,18.07
2022-12-01T02:37:58.722Z,18.07
2022-12-01T02:39:12.396Z,18.09
2022-12-01T02:40:15.269Z,18.12
2022-12-01T02:41:28.847Z,18.1
2022-12-01T02:42:41.825Z,18.12
2022-12-01T02:43:45.853Z,18.1
2022-12-01T02:44:58.523Z,18.09
2022-12-01T02:46:12.664Z,18.13
2022-12-01T02:47:15.545Z,18.12
2022-12-01T02:48:29.352Z,18.1
2022-12-01T02:49:42.274Z,18.09
2022-12-01T02:50:46.378Z,18.1
2022-12-01T02:51:59.076Z,18.07
2022-12-01T02:53:13.414Z,18.1
2022-12-01T02:54:16.445Z,18.07
2022-12-01T02:55:29.933Z,18.09
2022-12-01T02:57:02.389Z,18.07
2022-12-01T02:57:46.369Z,18.07
2022-12-01T02:58:59.118Z,18.07
2022-12-01T03:00:12.861Z,18.07
2022-12-01T03:01:15.704Z,18.06
2022-12-01T03:02:29.895Z,18.12
2022-12-01T03:03:42.710Z,18.07
2022-12-01T03:04:46.349Z,18.09
2022-12-01T03:06:18.744Z,18.09
2022-12-01T03:07:12.858Z,18.07
2022-12-01T03:08:25.502Z,18.07
2022-12-01T03:09:29.181Z,18.07
2022-12-01T03:10:41.993Z,18.1
2022-12-01T03:11:45.852Z,18.09
2022-12-01T03:12:58.540Z,18.09
2022-12-01T03:14:41.919Z,18.1
2022-12-01T03:15:15.811Z,18.09
2022-12-01T03:16:28.793Z,18.1
2022-12-01T03:17:42.346Z,18.12
2022-12-01T03:18:45.112Z,18.13
2022-12-01T03:19:58.846Z,18.1
2022-12-01T03:21:21.497Z,18.1
2022-12-01T03:22:15.347Z,18.12
2022-12-01T03:23:28.079Z,18.1
2022-12-01T03:24:41.852Z,18.12
2022-12-01T03:25:44.666Z,18.09
2022-12-01T03:26:58.485Z,18.12
2022-12-01T03:28:21.204Z,18.1
2022-12-01T03:29:15.338Z,18.09
2022-12-01T03:30:28.332Z,18.09
2022-12-01T03:31:41.889Z,18.09
2022-12-01T03:32:44.763Z,18.06
2022-12-01T03:33:58.838Z,18.07
2022-12-01T03:35:11.729Z,18.06
2022-12-01T03:36:15.845Z,18.06
2022-12-01T03:37:28.583Z,18.04
2022-12-01T03:38:42.387Z,18.06
2022-12-01T03:39:45.281Z,18.04
2022-12-01T03:40:59.427Z,18.03
2022-12-01T03:42:12.126Z,18.02
2022-12-01T03:43:15.845Z,18.03
2022-12-01T03:44:28.609Z,18.03
2022-12-01T03:45:42.873Z,18.03
2022-12-01T03:46:46.737Z,18.02
2022-12-01T03:48:00.357Z,18.02
2022-12-01T03:49:13.177Z,17.97
2022-12-01T03:50:17.379Z,17.99
2022-12-01T03:51:30.034Z,18.02
2022-12-01T03:52:43.347Z,17.99
2022-12-01T03:53:56.110Z,18.0
2022-12-01T03:54:59.999Z,17.99
2022-12-01T03:56:22.646Z,17.97
2022-12-01T03:57:16.355Z,17.97
2022-12-01T03:58:29.112Z,17.96
2022-12-01T03:59:42.870Z,18.0
2022-12-01T04:00:45.566Z,17.99
2022-12-01T04:02:00.411Z,18.02
2022-12-01T04:03:13.439Z,18.02
2022-12-01T04:04:17.374Z,18.0
2022-12-01T04:05:30.072Z,18.02
2022-12-01T04:06:43.856Z,17.99
2022-12-01T04:07:46.767Z,18.0
2022-12-01T04:09:00.372Z,17.97
2022-12-01T04:10:03.094Z,17.99
2022-12-01T04:11:17.891Z,17.96
2022-12-01T04:12:30.635Z,18.0
2022-12-01T04:13:34.380Z,17.99
2022-12-01T04:14:47.119Z,17.99
2022-12-01T04:16:01.193Z,17.99
2022-12-01T04:17:04.716Z,17.99
2022-12-01T04:18:28.415Z,17.96
2022-12-01T04:19:31.199Z,17.96
2022-12-01T04:20:35.451Z,17.96
2022-12-01T04:22:07.995Z,17.97
2022-12-01T04:23:02.038Z,17.99
2022-12-01T04:24:04.844Z,18.0
2022-12-01T04:25:18.402Z,18.02
2022-12-01T04:26:51.094Z,17.99
2022-12-01T04:27:35.652Z,17.97
2022-12-01T04:28:48.304Z,17.97
2022-12-01T04:30:11.870Z,18.0
2022-12-01T04:31:05.073Z,17.99
2022-12-01T04:32:18.875Z,18.0
2022-12-01T04:33:31.539Z,18.02
2022-12-01T04:34:35.485Z,18.03
2022-12-01T04:35:48.718Z,18.0
2022-12-01T04:37:02.431Z,18.03
2022-12-01T04:38:05.311Z,18.04
2022-12-01T04:39:18.919Z,18.02
2022-12-01T04:40:31.745Z,18.03
2022-12-01T04:41:35.409Z,17.99
2022-12-01T04:42:48.175Z,17.97
2022-12-01T04:44:02.377Z,17.97
2022-12-01T04:45:05.112Z,17.96
2022-12-01T04:46:20.908Z,17.97
2022-12-01T04:47:23.814Z,17.94
2022-12-01T04:48:52.056Z,17.96
2022-12-01T04:49:44.920Z,17.96
2022-12-01T04:50:58.552Z,17.96
2022-12-01T04:52:11.236Z,17.96
2022-12-01T04:53:15.746Z,17.97
2022-12-01T04:54:28.557Z,17.97
2022-12-01T04:55:42.182Z,17.96
2022-12-01T04:56:45.093Z,17.97
2022-12-01T04:57:58.558Z,17.97
2022-12-01T04:59:11.291Z,17.97
2022-12-01T05:00:25.110Z,17.96
2022-12-01T05:01:27.909Z,17.94
2022-12-01T05:02:41.723Z,17.97
2022-12-01T05:03:44.451Z,17.97
2022-12-01T05:04:58.111Z,18.06
2022-12-01T05:06:11.024Z,18.17
2022-12-01T05:07:35.534Z,18.3
2022-12-01T05:08:28.584Z,18.43
2022-12-01T05:09:43.099Z,18.54
2022-12-01T05:10:46.344Z,18.66
2022-12-01T05:12:00.319Z,18.77
2022-12-01T05:13:12.807Z,18.89
2022-12-01T05:14:16.061Z,18.95
2022-12-01T05:15:29.004Z,19.05
2022-12-01T05:16:42.662Z,19.13
2022-12-01T05:17:45.375Z,19.22
2022-12-01T05:19:18.695Z,19.27
2022-12-01T05:20:31.293Z,19.33
2022-12-01T05:21:14.006Z,19.42
2022-12-01T05:22:57.205Z,19.47
2022-12-01T05:23:37.041Z,19.53
2022-12-01T05:24:49.541Z,19.59
2022-12-01T05:26:03.075Z,19.66
2022-12-01T05:27:05.754Z,19.68
2022-12-01T05:28:19.077Z,19.74
2022-12-01T05:29:31.587Z,19.77
2022-12-01T05:30:35.109Z,19.78
2022-12-01T05:31:48.994Z,19.81
2022-12-01T05:33:02.064Z,19.83
2022-12-01T05:34:04.553Z,19.86
2022-12-01T05:35:17.585Z,19.87
2022-12-01T05:36:29.961Z,19.91
2022-12-01T05:37:43.088Z,19.9
2022-12-01T05:38:45.542Z,19.93
2022-12-01T05:39:58.581Z,19.91
2022-12-01T05:41:10.995Z,19.96
2022-12-01T05:42:14.096Z,19.96
2022-12-01T05:43:29.485Z,19.97
2022-12-01T05:44:33.115Z,19.94
2022-12-01T05:45:45.548Z,19.98
2022-12-01T05:46:59.582Z,19.97
2022-12-01T05:48:02.058Z,19.97
2022-12-01T05:49:15.062Z,19.91
2022-12-01T05:50:27.414Z,19.88
2022-12-01T05:51:40.582Z,19.87
2022-12-01T05:52:43.038Z,19.86
2022-12-01T05:53:56.093Z,19.8
2022-12-01T05:55:08.491Z,19.78
2022-12-01T05:56:21.605Z,19.76
2022-12-01T05:57:24.119Z,19.77
2022-12-01T05:58:37.693Z,19.77
2022-12-01T05:59:50.389Z,19.71
2022-12-01T06:00:54.062Z,19.71
2022-12-01T06:02:06.429Z,19.71
2022-12-01T06:03:19.579Z,19.68
2022-12-01T06:04:22.204Z,19.67
2022-12-01T06:05:35.583Z,19.64
2022-12-01T06:06:47.993Z,19.64
2022-12-01T06:08:01.203Z,19.63
2022-12-01T06:09:03.806Z,19.57
2022-12-01T06:10:17.102Z,19.59
2022-12-01T06:11:29.513Z,19.57
2022-12-01T06:12:33.177Z,19.57
2022-12-01T06:13:45.578Z,19.56
2022-12-01T06:14:59.100Z,19.56
2022-12-01T06:16:01.561Z,19.55
2022-12-01T06:17:15.085Z,19.57
2022-12-01T06:18:27.621Z,19.55
2022-12-01T06:19:31.697Z,19.55
2022-12-01T06:20:53.989Z,19.6
2022-12-01T06:21:57.576Z,19.62
2022-12-01T06:23:00.096Z,19.66
2022-12-01T06:24:13.604Z,19.66
2022-12-01T06:25:26.100Z,19.7
2022-12-01T06:26:39.596Z,19.74
2022-12-01T06:29:09.072Z,19.81
2022-12-01T06:30:01.654Z,19.86
2022-12-01T06:31:15.100Z,19.88
2022-12-01T06:32:27.420Z,19.96
2022-12-01T06:33:30.666Z,19.98
2022-12-01T06:34:43.055Z,20.01
2022-12-01T06:35:56.071Z,20.03
2022-12-01T06:37:08.485Z,20.06
2022-12-01T06:38:11.577Z,20.1
2022-12-01T06:39:23.938Z,20.1
2022-12-01T06:40:37.053Z,20.17
2022-12-01T06:41:39.529Z,20.15
2022-12-01T06:42:52.593Z,20.17
2022-12-01T06:44:05.031Z,20.21
2022-12-01T06:45:18.061Z,20.24
2022-12-01T06:46:20.877Z,20.27
2022-12-01T06:47:34.572Z,20.25
2022-12-01T06:48:46.891Z,20.28
2022-12-01T06:49:50.923Z,20.29
2022-12-01T06:51:04.836Z,20.32
2022-12-01T06:52:18.068Z,20.35
2022-12-01T06:53:30.299Z,20.35
2022-12-01T06:54:33.668Z,20.38
2022-12-01T06:55:45.960Z,20.39
2022-12-01T06:56:49.565Z,20.41
2022-12-01T06:58:02.173Z,20.44
2022-12-01T06:59:15.603Z,20.44
2022-12-01T07:00:18.512Z,20.45
2022-12-01T07:01:32.144Z,20.52
2022-12-01T07:02:44.647Z,20.49
2022-12-01T07:03:48.098Z,20.52
2022-12-01T07:05:00.456Z,20.52
2022-12-01T07:06:14.083Z,20.54
2022-12-01T07:07:16.570Z,20.57
2022-12-01T07:08:29.600Z,20.59
2022-12-01T07:09:52.043Z,20.57
2022-12-01T07:10:55.613Z,20.57
2022-12-01T07:11:58.018Z,20.58
2022-12-01T07:13:11.676Z,20.59
2022-12-01T07:14:24.076Z,20.61
2022-12-01T07:15:27.767Z,20.64
2022-12-01T07:16:40.184Z,20.65
2022-12-01T07:17:53.611Z,20.66
2022-12-01T07:18:55.850Z,20.64
2022-12-01T07:20:09.218Z,20.66
2022-12-01T07:21:21.580Z,20.68
2022-12-01T07:22:35.118Z,20.66
2022-12-01T07:23:37.558Z,20.69
2022-12-01T07:24:50.674Z,20.68
2022-12-01T07:26:03.007Z,20.66
2022-12-01T07:27:26.111Z,20.7
2022-12-01T07:28:18.640Z,20.7
2022-12-01T07:29:32.097Z,20.73
2022-12-01T07:30:54.551Z,20.7
2022-12-01T07:31:48.119Z,20.75
2022-12-01T07:33:00.694Z,20.78
2022-12-01T07:34:14.139Z,20.79
2022-12-01T07:35:16.493Z,20.78
2022-12-01T07:36:30.926Z,20.8
2022-12-01T07:37:43.689Z,20.8
2022-12-01T07:38:47.096Z,20.78
2022-12-01T07:39:59.569Z,20.79
2022-12-01T07:41:12.602Z,20.8
